Time;durP1;ratioP1;P1;durP2;ratioP2;P2;SDS_P1;SDS_P2;PMS_P1;PMS_P2;Temp;Humidity;BMP_temperature;BMP_pressure;BME280_temperature;BME280_humidity;BME280_pressure;Samples;Min_cycle;Max_cycle;Signal;HPM_P1;HPM_P2
2023/05/08 00:01:29;;;;;;;20.92;18.55;;;18.40;99.90;;;;;;5068833;28;20468;-76
2023/05/08 00:03:55;;;;;;;18.35;16.65;;;18.40;99.90;;;;;;5050443;28;20025;-77
2023/05/08 00:06:21;;;;;;;18.70;16.98;;;18.40;99.90;;;;;;5051408;28;20025;-77
2023/05/08 00:08:46;;;;;;;20.73;16.60;;;18.40;99.90;;;;;;5051821;28;20025;-77
2023/05/08 00:11:13;;;;;;;19.60;15.90;;;18.30;99.90;;;;;;5052113;28;20478;-81
2023/05/08 00:13:40;;;;;;;18.17;16.35;;;18.30;99.90;;;;;;5046594;28;20141;-76
2023/05/08 00:16:11;;;;;;;17.80;16.05;;;18.20;99.90;;;;;;5071876;28;20032;-78
2023/05/08 00:18:37;;;;;;;21.02;17.33;;;18.30;99.90;;;;;;5051534;28;20028;-79
2023/05/08 00:21:06;;;;;;;21.13;18.25;;;18.30;99.90;;;;;;5050462;28;20025;-76
2023/05/08 00:23:32;;;;;;;18.63;16.80;;;18.30;99.90;;;;;;5059922;28;20033;-78
2023/05/08 00:25:58;;;;;;;20.02;18.00;;;18.30;99.90;;;;;;5071039;28;20024;-79
2023/05/08 00:28:24;;;;;;;19.75;17.67;;;18.20;99.90;;;;;;5071298;28;20024;-76
2023/05/08 00:30:49;;;;;;;18.50;16.55;;;18.30;99.90;;;;;;5070682;28;20025;-82
2023/05/08 00:33:15;;;;;;;18.60;16.30;;;18.30;99.90;;;;;;5054062;28;20484;-80
2023/05/08 00:35:41;;;;;;;19.70;17.70;;;18.30;99.90;;;;;;5071174;28;20027;-81
2023/05/08 00:38:08;;;;;;;17.77;15.98;;;18.30;99.90;;;;;;5070173;28;20035;-79
2023/05/08 00:40:34;;;;;;;18.25;16.45;;;18.30;99.90;;;;;;5069632;28;20021;-80
2023/05/08 00:43:00;;;;;;;19.23;17.42;;;18.30;99.90;;;;;;5072241;28;20082;-79
2023/05/08 00:45:33;;;;;;;19.42;17.52;;;18.30;99.90;;;;;;5054196;28;20108;-81
2023/05/08 00:47:59;;;;;;;18.52;16.75;;;18.30;99.90;;;;;;5049327;28;20025;-81
2023/05/08 00:50:25;;;;;;;19.83;16.58;;;18.30;99.90;;;;;;5051089;28;20021;-84
2023/05/08 00:52:52;;;;;;;18.23;16.20;;;18.30;99.90;;;;;;5057129;28;20032;-82
2023/05/08 00:55:19;;;;;;;20.60;17.67;;;18.30;99.90;;;;;;5071536;28;20544;-80
2023/05/08 00:57:47;;;;;;;18.55;16.75;;;18.30;99.90;;;;;;5075228;28;20115;-80
2023/05/08 01:00:17;;;;;;;19.33;17.33;;;18.30;99.90;;;;;;5074536;28;20032;-78
2023/05/08 01:02:44;;;;;;;21.33;18.98;;;18.30;99.90;;;;;;5074830;28;20067;-78
2023/05/08 01:05:10;;;;;;;21.35;17.50;;;18.20;99.90;;;;;;5067875;28;20044;-79
2023/05/08 01:07:37;;;;;;;20.40;17.35;;;18.20;99.90;;;;;;5063194;28;20028;-79
2023/05/08 01:10:07;;;;;;;21.98;17.83;;;18.20;99.90;;;;;;5067754;28;20012;-79
2023/05/08 01:13:06;;;;;;;19.02;17.13;;;18.20;99.90;;;;;;5052825;28;20048;-79
2023/05/08 01:15:48;;;;;;;21.00;17.48;;;18.20;99.90;;;;;;5069016;28;20077;-79
2023/05/08 01:18:34;;;;;;;24.83;19.08;;;18.20;99.90;;;;;;5060934;28;20028;-78
2023/05/08 01:21:06;;;;;;;18.40;16.50;;;18.10;99.90;;;;;;5041677;28;20029;-81
2023/05/08 01:23:59;;;;;;;18.30;16.50;;;18.00;99.90;;;;;;5071304;28;20027;-80
2023/05/08 01:26:28;;;;;;;22.58;18.35;;;18.00;99.90;;;;;;5062541;28;20058;-77
2023/05/08 01:29:23;;;;;;;19.90;18.00;;;18.00;99.90;;;;;;5074054;28;20104;-76
2023/05/08 01:32:16;;;;;;;20.42;17.77;;;18.00;99.90;;;;;;5055399;28;20023;-76
2023/05/08 01:35:23;;;;;;;20.25;18.30;;;18.00;99.90;;;;;;5061792;28;20029;-80
2023/05/08 01:37:58;;;;;;;20.92;18.73;;;18.00;99.90;;;;;;5068887;28;20415;-80
2023/05/08 01:40:36;;;;;;;23.40;20.77;;;18.00;99.90;;;;;;5057993;28;20032;-75
2023/05/08 01:43:15;;;;;;;20.55;18.13;;;18.00;99.90;;;;;;5067214;28;20095;-75
2023/05/08 01:45:49;;;;;;;19.77;17.77;;;18.00;99.90;;;;;;5058358;28;20083;-78
2023/05/08 01:48:34;;;;;;;18.35;16.38;;;18.10;99.90;;;;;;5066774;28;20017;-75
2023/05/08 01:51:22;;;;;;;18.33;16.40;;;18.10;99.90;;;;;;5060980;28;20037;-77
2023/05/08 01:53:57;;;;;;;23.52;18.55;;;17.90;99.90;;;;;;5069794;28;20033;-81
2023/05/08 01:56:28;;;;;;;20.30;18.08;;;17.70;99.90;;;;;;5061829;28;20044;-78
2023/05/08 01:58:56;;;;;;;23.73;19.95;;;17.70;99.90;;;;;;5061309;28;20082;-78
2023/05/08 02:01:27;;;;;;;21.90;18.85;;;17.70;99.90;;;;;;5066822;28;20019;-77
2023/05/08 02:03:54;;;;;;;23.77;18.27;;;17.80;99.90;;;;;;5056046;28;20173;-80
2023/05/08 02:06:21;;;;;;;22.17;18.98;;;17.90;99.90;;;;;;5064051;28;20016;-79
2023/05/08 02:08:48;;;;;;;21.20;18.85;;;17.90;99.90;;;;;;5045438;28;20024;-76
2023/05/08 02:11:16;;;;;;;20.90;18.80;;;17.90;99.90;;;;;;5058162;28;20392;-76
2023/05/08 02:13:44;;;;;;;20.95;18.83;;;17.90;99.90;;;;;;5069124;28;20032;-79
2023/05/08 02:16:13;;;;;;;30.52;23.40;;;17.90;99.90;;;;;;5059629;28;20021;-80
2023/05/08 02:18:43;;;;;;;22.33;20.00;;;17.80;99.90;;;;;;5061987;28;20078;-76
2023/05/08 02:21:11;;;;;;;22.92;19.45;;;17.80;99.90;;;;;;5067040;28;20085;-78
2023/05/08 02:23:37;;;;;;;19.40;17.40;;;17.80;99.90;;;;;;5040285;28;20025;-80
2023/05/08 02:26:04;;;;;;;26.08;20.13;;;17.90;99.90;;;;;;5063100;28;20028;-80
2023/05/08 02:28:35;;;;;;;24.70;20.67;;;17.90;99.90;;;;;;5060724;28;20017;-78
2023/05/08 02:31:01;;;;;;;20.65;18.50;;;17.90;99.90;;;;;;5062526;28;20029;-79
2023/05/08 02:33:29;;;;;;;22.45;18.58;;;17.90;99.90;;;;;;5057459;28;20076;-77
2023/05/08 02:35:56;;;;;;;27.95;19.77;;;17.80;99.90;;;;;;5060732;28;20016;-75
2023/05/08 02:38:24;;;;;;;32.30;25.08;;;17.70;99.90;;;;;;5058475;28;20021;-77
2023/05/08 02:40:54;;;;;;;22.58;19.75;;;17.70;99.90;;;;;;5060526;28;20013;-76
2023/05/08 02:43:20;;;;;;;26.02;20.27;;;17.70;99.90;;;;;;5058132;28;20082;-77
2023/05/08 02:46:17;;;;;;;24.15;20.40;;;17.70;99.90;;;;;;5059297;28;20542;-75
2023/05/08 02:49:02;;;;;;;28.95;21.33;;;17.70;99.90;;;;;;5024093;28;20036;-75
2023/05/08 02:51:48;;;;;;;26.92;22.88;;;17.80;99.90;;;;;;5062657;28;20042;-77
2023/05/08 02:54:25;;;;;;;22.98;20.48;;;17.70;99.90;;;;;;5056957;28;20369;-76
2023/05/08 02:57:14;;;;;;;26.23;22.73;;;17.80;99.90;;;;;;5061127;28;20032;-80
2023/05/08 02:59:45;;;;;;;23.17;20.73;;;17.80;99.90;;;;;;5059097;28;20576;-76
2023/05/08 03:02:14;;;;;;;23.63;20.67;;;17.80;99.90;;;;;;5058653;28;20056;-76
2023/05/08 03:04:48;;;;;;;26.27;22.15;;;17.80;99.90;;;;;;5052511;28;20380;-76
2023/05/08 03:07:15;;;;;;;25.20;22.45;;;17.80;99.90;;;;;;5057131;28;20034;-75
2023/05/08 03:09:46;;;;;;;23.92;21.40;;;17.80;99.90;;;;;;5056786;28;20473;-77
2023/05/08 03:12:19;;;;;;;21.30;19.02;;;17.70;99.90;;;;;;5038770;28;20381;-79
2023/05/08 03:15:09;;;;;;;29.25;22.23;;;17.80;99.90;;;;;;5054555;28;20484;-76
2023/05/08 03:17:36;;;;;;;24.17;19.92;;;17.70;99.90;;;;;;5056998;28;20020;-80
2023/05/08 03:20:06;;;;;;;24.20;21.63;;;17.70;99.90;;;;;;5059033;28;20043;-76
2023/05/08 03:22:35;;;;;;;22.33;20.10;;;17.70;99.90;;;;;;5056024;28;20097;-75
2023/05/08 03:25:05;;;;;;;22.00;19.90;;;17.70;99.90;;;;;;5062047;28;20465;-75
2023/05/08 03:27:33;;;;;;;23.30;20.23;;;17.70;99.90;;;;;;5046025;28;20135;-75
2023/05/08 03:30:00;;;;;;;21.35;18.77;;;17.70;99.90;;;;;;5055631;28;20024;-75
2023/05/08 03:32:27;;;;;;;22.05;19.55;;;17.70;99.90;;;;;;5056625;28;20074;-77
2023/05/08 03:34:57;;;;;;;22.38;20.00;;;17.70;99.90;;;;;;5055122;28;20021;-75
2023/05/08 03:37:23;;;;;;;25.92;22.48;;;17.70;99.90;;;;;;5056778;28;20020;-76
2023/05/08 03:39:50;;;;;;;23.25;19.73;;;17.60;99.90;;;;;;5060891;28;20495;-78
2023/05/08 03:42:20;;;;;;;27.33;22.40;;;17.50;99.90;;;;;;5056058;28;20024;-78
2023/05/08 03:44:52;;;;;;;21.88;19.40;;;17.50;99.90;;;;;;5058488;28;20033;-75
2023/05/08 03:47:19;;;;;;;27.67;21.00;;;17.50;99.90;;;;;;5055505;28;20020;-76
2023/05/08 03:49:47;;;;;;;25.35;20.83;;;17.60;99.90;;;;;;5057126;28;20143;-75
2023/05/08 03:52:13;;;;;;;22.67;19.67;;;17.60;99.90;;;;;;5056298;28;20106;-78
2023/05/08 03:54:39;;;;;;;24.25;21.65;;;17.60;99.90;;;;;;5054895;28;20029;-77
2023/05/08 03:57:05;;;;;;;23.55;20.67;;;17.60;99.90;;;;;;5055447;28;20450;-75
2023/05/08 03:59:43;;;;;;;25.80;20.85;;;17.60;99.90;;;;;;5058308;28;20108;-76
2023/05/08 04:02:32;;;;;;;21.30;19.05;;;17.60;99.90;;;;;;5062724;28;20015;-76
2023/05/08 04:05:30;;;;;;;22.85;18.13;;;17.60;99.90;;;;;;5060282;28;20033;-77
2023/05/08 04:08:12;;;;;;;26.40;21.55;;;17.60;99.90;;;;;;5062292;28;20468;-76
2023/05/08 04:10:47;;;;;;;24.10;21.38;;;17.50;99.90;;;;;;5044935;28;20471;-77
2023/05/08 04:13:23;;;;;;;25.17;20.80;;;17.50;99.90;;;;;;5059787;28;20996;-78
2023/05/08 04:15:50;;;;;;;21.83;18.95;;;17.60;99.90;;;;;;5052111;28;20444;-76
2023/05/08 04:18:21;;;;;;;41.60;26.70;;;17.50;99.90;;;;;;5058018;28;20047;-77
2023/05/08 04:20:48;;;;;;;24.42;21.25;;;17.40;99.90;;;;;;5055918;28;20473;-77
2023/05/08 04:23:19;;;;;;;23.58;20.92;;;17.30;99.90;;;;;;5054798;28;20074;-75
2023/05/08 04:25:47;;;;;;;24.27;21.17;;;17.40;99.90;;;;;;5053518;28;20480;-76
2023/05/08 04:28:13;;;;;;;28.35;22.85;;;17.40;99.90;;;;;;5055058;28;20025;-79
2023/05/08 04:30:39;;;;;;;26.65;21.90;;;17.50;99.90;;;;;;5064292;28;20058;-76
2023/05/08 04:33:06;;;;;;;22.92;20.52;;;17.40;99.90;;;;;;5042259;28;20433;-76
2023/05/08 04:35:33;;;;;;;30.67;26.15;;;17.50;99.90;;;;;;5061762;28;20024;-75
2023/05/08 04:37:59;;;;;;;26.27;22.10;;;17.40;99.90;;;;;;5062948;28;20031;-76
2023/05/08 04:40:25;;;;;;;23.98;20.90;;;17.50;99.90;;;;;;5064384;28;20527;-76
2023/05/08 04:42:51;;;;;;;25.55;21.00;;;17.40;99.90;;;;;;5059191;28;20112;-77
2023/05/08 04:45:17;;;;;;;24.52;21.92;;;17.40;99.90;;;;;;5062315;28;20104;-76
2023/05/08 04:47:43;;;;;;;22.30;19.83;;;17.50;99.90;;;;;;5056518;28;20087;-74
2023/05/08 04:50:10;;;;;;;28.80;23.33;;;17.50;99.90;;;;;;5062642;28;20031;-75
2023/05/08 04:52:35;;;;;;;23.58;21.10;;;17.50;99.90;;;;;;5059380;28;20387;-76
2023/05/08 04:55:01;;;;;;;23.77;21.27;;;17.50;99.90;;;;;;5057912;28;20024;-76
2023/05/08 04:57:27;;;;;;;20.45;18.42;;;17.50;99.90;;;;;;5062640;28;20047;-76
2023/05/08 04:59:52;;;;;;;25.60;19.38;;;17.50;99.90;;;;;;5058254;28;20094;-75
2023/05/08 05:02:19;;;;;;;21.98;19.80;;;17.50;99.90;;;;;;5060922;28;20013;-75
2023/05/08 05:04:45;;;;;;;23.73;20.75;;;17.60;99.90;;;;;;5060578;28;20054;-79
2023/05/08 05:07:11;;;;;;;22.65;20.27;;;17.60;99.90;;;;;;5066370;28;20473;-77
2023/05/08 05:09:38;;;;;;;31.98;22.42;;;17.60;99.90;;;;;;5057968;28;20052;-75
2023/05/08 05:12:04;;;;;;;25.58;21.48;;;17.60;99.90;;;;;;5061352;28;20024;-76
2023/05/08 05:14:30;;;;;;;25.52;23.13;;;17.60;99.90;;;;;;5061489;28;20041;-79
2023/05/08 05:16:56;;;;;;;26.70;23.90;;;17.60;99.90;;;;;;5058355;28;20031;-77
2023/05/08 05:19:22;;;;;;;27.98;25.02;;;17.70;99.90;;;;;;5067031;28;20107;-75
2023/05/08 05:21:47;;;;;;;25.85;23.13;;;17.60;99.90;;;;;;5059448;28;20070;-76
2023/05/08 05:24:13;;;;;;;27.83;24.88;;;17.70;99.90;;;;;;5065338;28;20411;-76
2023/05/08 05:26:39;;;;;;;27.63;24.88;;;17.60;99.90;;;;;;5060563;28;20163;-75
2023/05/08 05:29:05;;;;;;;29.95;26.75;;;17.60;99.90;;;;;;5059045;28;20021;-75
2023/05/08 05:31:31;;;;;;;28.80;25.48;;;17.70;99.90;;;;;;5065373;28;20100;-78
2023/05/08 05:33:57;;;;;;;38.53;30.40;;;17.70;99.90;;;;;;5061341;28;20099;-76
2023/05/08 05:36:22;;;;;;;32.05;26.73;;;17.70;99.90;;;;;;5061689;28;20495;-75
2023/05/08 05:38:48;;;;;;;40.92;26.15;;;17.70;99.90;;;;;;5056179;28;20144;-76
2023/05/08 05:41:14;;;;;;;41.10;28.25;;;17.80;99.90;;;;;;5064112;28;20455;-77
2023/05/08 05:43:39;;;;;;;46.40;30.90;;;17.70;99.90;;;;;;5059770;28;20021;-76
2023/05/08 05:46:06;;;;;;;48.60;32.50;;;17.80;99.90;;;;;;5058736;28;20556;-75
2023/05/08 05:48:32;;;;;;;45.97;33.58;;;17.80;99.90;;;;;;5061104;28;20013;-75
2023/05/08 05:50:58;;;;;;;43.40;31.40;;;17.80;99.90;;;;;;5062644;28;20078;-75
2023/05/08 05:53:24;;;;;;;53.30;34.55;;;17.80;99.90;;;;;;5057371;28;20455;-76
2023/05/08 05:55:50;;;;;;;46.25;34.10;;;17.80;99.90;;;;;;5065312;28;20027;-76
2023/05/08 05:58:15;;;;;;;45.63;34.33;;;17.90;99.90;;;;;;5054706;28;20029;-75
2023/05/08 06:00:42;;;;;;;42.35;34.30;;;17.90;99.90;;;;;;5061603;28;20036;-76
2023/05/08 06:03:09;;;;;;;39.63;32.95;;;17.90;99.90;;;;;;5057845;28;20067;-77
2023/05/08 06:05:36;;;;;;;42.58;31.02;;;18.00;99.90;;;;;;5068121;28;20032;-74
2023/05/08 06:08:01;;;;;;;42.95;35.20;;;17.90;99.90;;;;;;5058906;28;20028;-76
2023/05/08 06:10:27;;;;;;;44.22;33.35;;;18.10;99.90;;;;;;5065633;28;20025;-75
2023/05/08 06:12:53;;;;;;;34.42;28.88;;;18.20;99.90;;;;;;5061252;28;20041;-74
2023/05/08 06:15:20;;;;;;;36.63;32.38;;;18.20;99.90;;;;;;5069935;28;20027;-75
2023/05/08 06:17:45;;;;;;;45.72;35.78;;;18.20;99.90;;;;;;5068384;28;20082;-76
2023/05/08 06:20:11;;;;;;;43.92;36.28;;;18.20;99.90;;;;;;5058555;28;20025;-76
2023/05/08 06:22:38;;;;;;;42.42;35.50;;;18.20;99.90;;;;;;5062173;28;20140;-75
2023/05/08 06:25:08;;;;;;;41.05;34.40;;;18.30;99.90;;;;;;5065651;28;20036;-75
2023/05/08 06:27:34;;;;;;;48.80;37.40;;;18.30;99.90;;;;;;5057208;28;20730;-77
2023/05/08 06:30:01;;;;;;;42.38;36.20;;;18.30;99.90;;;;;;5067393;28;20017;-75
2023/05/08 06:32:26;;;;;;;50.50;36.80;;;18.30;99.90;;;;;;5062154;28;20029;-76
2023/05/08 06:34:52;;;;;;;43.40;36.17;;;18.30;99.90;;;;;;5061427;28;20500;-76
2023/05/08 06:37:18;;;;;;;44.20;37.63;;;18.40;99.90;;;;;;5069395;28;20025;-76
2023/05/08 06:39:44;;;;;;;46.72;36.75;;;18.40;99.90;;;;;;5041371;28;20555;-75
2023/05/08 06:42:09;;;;;;;45.80;36.38;;;18.30;99.90;;;;;;5056979;28;20510;-75
2023/05/08 06:44:35;;;;;;;48.85;38.92;;;18.20;99.90;;;;;;5063087;28;20021;-76
2023/05/08 06:47:01;;;;;;;48.22;39.45;;;18.40;99.90;;;;;;5062995;28;20477;-77
2023/05/08 06:49:27;;;;;;;48.80;36.88;;;18.30;99.90;;;;;;5056427;28;20021;-77
2023/05/08 06:51:53;;;;;;;51.60;41.75;;;18.40;99.90;;;;;;5067490;28;20531;-77
2023/05/08 06:54:18;;;;;;;53.08;42.47;;;18.40;99.90;;;;;;5055020;28;20037;-77
2023/05/08 06:56:45;;;;;;;51.58;43.00;;;18.40;99.90;;;;;;5060635;28;20381;-77
2023/05/08 06:59:10;;;;;;;48.92;40.47;;;18.30;99.90;;;;;;5067257;28;20078;-77
2023/05/08 07:01:36;;;;;;;55.65;42.95;;;18.40;99.90;;;;;;5066260;28;20032;-78
2023/05/08 07:04:03;;;;;;;55.08;40.83;;;18.50;99.90;;;;;;5062296;28;20101;-77
2023/05/08 07:06:32;;;;;;;56.42;44.65;;;18.50;99.90;;;;;;5061188;28;20530;-76
2023/05/08 07:08:58;;;;;;;54.60;43.50;;;18.40;99.90;;;;;;5061678;28;20017;-83
2023/05/08 07:11:23;;;;;;;56.20;42.45;;;18.40;99.90;;;;;;5055761;28;20044;-79
2023/05/08 07:13:49;;;;;;;60.30;46.65;;;18.30;99.90;;;;;;5061639;28;20037;-77
2023/05/08 07:16:15;;;;;;;62.60;46.13;;;18.40;99.90;;;;;;5063896;28;20384;-78
2023/05/08 07:18:42;;;;;;;65.45;49.47;;;18.30;99.90;;;;;;5060135;28;20354;-78
2023/05/08 07:21:08;;;;;;;73.55;54.75;;;18.40;99.90;;;;;;5036722;28;20118;-84
2023/05/08 07:23:33;;;;;;;77.88;58.70;;;18.30;99.90;;;;;;5062868;28;20501;-80
2023/05/08 07:25:59;;;;;;;70.97;52.33;;;18.30;99.90;;;;;;5062128;28;20029;-78
2023/05/08 07:28:25;;;;;;;76.88;56.92;;;18.30;99.90;;;;;;5067776;28;20024;-78
2023/05/08 07:30:51;;;;;;;73.35;55.95;;;18.40;99.90;;;;;;5056604;28;20723;-78
2023/05/08 07:33:17;;;;;;;72.00;53.42;;;18.40;99.90;;;;;;5058495;28;20575;-78
2023/05/08 07:35:43;;;;;;;75.43;54.83;;;18.50;99.90;;;;;;5056123;28;20032;-77
2023/05/08 07:38:09;;;;;;;71.35;56.60;;;18.50;99.90;;;;;;5057260;28;20017;-78
2023/05/08 07:40:35;;;;;;;76.45;55.40;;;18.60;99.90;;;;;;5062396;28;20062;-78
2023/05/08 07:43:00;;;;;;;77.28;57.55;;;18.60;99.90;;;;;;5058939;28;20029;-77
2023/05/08 07:45:26;;;;;;;81.03;61.58;;;18.60;99.90;;;;;;5057361;28;20059;-76
2023/05/08 07:47:54;;;;;;;73.75;58.28;;;18.60;99.90;;;;;;5056327;28;20017;-77
2023/05/08 07:50:21;;;;;;;70.28;53.78;;;18.60;99.90;;;;;;5045405;28;20381;-79
2023/05/08 07:52:47;;;;;;;76.22;57.05;;;18.70;99.90;;;;;;5056867;28;20071;-79
2023/05/08 07:55:13;;;;;;;74.45;56.47;;;18.80;99.90;;;;;;5064808;28;20498;-78
2023/05/08 07:57:41;;;;;;;69.28;54.42;;;18.80;99.90;;;;;;5063988;28;20050;-79
2023/05/08 08:00:10;;;;;;;65.18;50.72;;;18.80;99.90;;;;;;5038790;28;20163;-79
2023/05/08 08:02:36;;;;;;;58.20;48.70;;;18.70;99.90;;;;;;5060879;28;20101;-79
2023/05/08 08:05:03;;;;;;;61.40;49.60;;;18.70;99.90;;;;;;5048073;28;20025;-76
2023/05/08 08:07:28;;;;;;;67.43;53.75;;;18.90;99.90;;;;;;5040934;28;20033;-79
2023/05/08 08:09:54;;;;;;;71.75;52.30;;;19.00;99.90;;;;;;5053802;28;20077;-79
2023/05/08 08:12:20;;;;;;;64.75;51.60;;;19.10;99.90;;;;;;5034249;28;20774;-80
2023/05/08 08:14:47;;;;;;;56.92;48.17;;;19.10;99.90;;;;;;5059838;28;20044;-80
2023/05/08 08:17:13;;;;;;;58.65;49.35;;;19.20;99.90;;;;;;5053450;28;20036;-80
2023/05/08 08:19:38;;;;;;;63.08;52.20;;;19.30;99.90;;;;;;5052623;28;20028;-80
2023/05/08 08:22:05;;;;;;;59.95;49.08;;;19.50;99.90;;;;;;5034440;28;20434;-78
2023/05/08 08:24:30;;;;;;;58.10;46.22;;;19.50;99.90;;;;;;5030143;28;20017;-80
2023/05/08 08:26:56;;;;;;;57.13;47.72;;;19.60;99.90;;;;;;5032891;28;20456;-80
2023/05/08 08:29:22;;;;;;;56.88;46.50;;;19.60;99.90;;;;;;5034200;28;20044;-80
2023/05/08 08:31:48;;;;;;;57.88;49.25;;;19.70;99.90;;;;;;5033790;28;20025;-80
2023/05/08 08:34:13;;;;;;;52.65;42.50;;;19.80;99.90;;;;;;5035072;28;20037;-80
2023/05/08 08:36:39;;;;;;;56.85;44.60;;;19.90;99.90;;;;;;5047314;28;20414;-80
2023/05/08 08:39:05;;;;;;;59.97;51.00;;;19.80;99.90;;;;;;5033944;28;20020;-80
2023/05/08 08:41:31;;;;;;;57.75;48.08;;;19.80;99.90;;;;;;5055139;28;20020;-80
2023/05/08 08:43:58;;;;;;;56.33;45.95;;;19.80;99.90;;;;;;5034177;28;21209;-80
2023/05/08 08:46:25;;;;;;;54.47;42.40;;;19.80;99.90;;;;;;5047763;28;20023;-80
2023/05/08 08:48:53;;;;;;;54.97;43.03;;;19.80;99.90;;;;;;5047511;28;20469;-80
2023/05/08 08:51:30;;;;;;;54.28;44.45;;;19.90;99.90;;;;;;5033714;28;20032;-80
2023/05/08 08:54:12;;;;;;;51.28;42.63;;;19.90;99.90;;;;;;5035610;28;20104;-80
2023/05/08 08:56:41;;;;;;;55.53;42.08;;;19.90;99.90;;;;;;5047314;28;20037;-80
2023/05/08 08:59:08;;;;;;;51.13;41.95;;;20.00;99.90;;;;;;5053408;28;20393;-80
2023/05/08 09:01:37;;;;;;;54.15;44.47;;;20.00;99.90;;;;;;5031693;28;20021;-80
2023/05/08 09:04:04;;;;;;;56.08;41.53;;;20.00;99.90;;;;;;5033533;28;20167;-78
2023/05/08 09:06:34;;;;;;;55.20;43.08;;;19.90;99.90;;;;;;5051423;28;20028;-79
2023/05/08 09:09:01;;;;;;;54.38;45.58;;;19.90;99.90;;;;;;5054255;28;20053;-78
2023/05/08 09:11:27;;;;;;;56.88;43.78;;;19.90;99.90;;;;;;5054369;28;20025;-78
2023/05/08 09:13:56;;;;;;;59.80;45.92;;;19.90;99.90;;;;;;5052929;28;20068;-78
2023/05/08 09:16:23;;;;;;;66.88;49.95;;;19.90;99.90;;;;;;5054232;28;20035;-78
2023/05/08 09:18:49;;;;;;;61.95;47.17;;;19.80;99.90;;;;;;5055908;28;20029;-78
2023/05/08 09:21:15;;;;;;;58.67;46.13;;;19.80;99.90;;;;;;5056159;28;20090;-78
2023/05/08 09:23:59;;;;;;;66.50;47.88;;;19.80;99.90;;;;;;5050073;28;20044;-78
2023/05/08 09:26:35;;;;;;;59.00;44.92;;;19.90;99.90;;;;;;5056991;28;20035;-77
2023/05/08 09:29:17;;;;;;;70.30;51.20;;;19.90;99.90;;;;;;5056007;28;20124;-78
2023/05/08 09:31:45;;;;;;;64.28;47.00;;;19.80;99.90;;;;;;5054763;28;20469;-78
2023/05/08 09:34:25;;;;;;;74.10;50.72;;;20.00;99.90;;;;;;5058913;28;20036;-78
2023/05/08 09:36:51;;;;;;;72.75;55.45;;;20.00;99.90;;;;;;5053701;28;20025;-78
2023/05/08 09:39:24;;;;;;;66.22;50.47;;;20.10;99.90;;;;;;5057311;28;20040;-78
2023/05/08 09:42:03;;;;;;;65.18;48.50;;;20.00;99.90;;;;;;5055831;28;20658;-78
2023/05/08 09:45:01;;;;;;;67.35;47.97;;;20.00;99.90;;;;;;5053291;28;20025;-78
2023/05/08 09:47:27;;;;;;;68.35;49.33;;;19.90;99.90;;;;;;5026957;28;20041;-78
2023/05/08 09:50:04;;;;;;;69.63;47.95;;;19.80;99.90;;;;;;5053416;28;20103;-78
2023/05/08 09:52:31;;;;;;;68.25;46.58;;;19.80;99.90;;;;;;5050669;28;20534;-78
2023/05/08 09:55:02;;;;;;;71.03;51.50;;;19.70;99.90;;;;;;5054961;28;20847;-77
2023/05/08 09:57:29;;;;;;;60.55;43.72;;;19.70;99.90;;;;;;5055986;28;20036;-78
2023/05/08 10:00:11;;;;;;;62.83;46.80;;;19.70;99.90;;;;;;5037440;28;20032;-78
2023/05/08 10:02:52;;;;;;;68.35;49.13;;;19.70;99.90;;;;;;5046092;28;20527;-78
2023/05/08 10:05:33;;;;;;;63.03;46.30;;;19.80;99.90;;;;;;5051848;28;20021;-79
2023/05/08 10:08:17;;;;;;;73.45;48.95;;;19.80;99.90;;;;;;5050090;28;20025;-78
2023/05/08 10:10:43;;;;;;;150.55;85.05;;;19.80;99.90;;;;;;5058610;28;20075;-77
2023/05/08 10:13:08;;;;;;;69.47;48.95;;;20.00;99.90;;;;;;5058344;28;20452;-77
2023/05/08 10:15:37;;;;;;;67.60;48.10;;;20.10;99.90;;;;;;5055285;28;20040;-78
2023/05/08 10:18:05;;;;;;;66.75;47.17;;;20.20;99.90;;;;;;5055046;28;20040;-77
2023/05/08 10:20:33;;;;;;;70.78;49.53;;;20.30;99.90;;;;;;5056375;28;20431;-77
2023/05/08 10:23:01;;;;;;;71.47;49.85;;;20.30;99.90;;;;;;5051027;28;20039;-77
2023/05/08 10:25:32;;;;;;;70.47;51.05;;;20.20;99.90;;;;;;5053676;28;20020;-77
2023/05/08 10:28:29;;;;;;;69.50;46.47;;;20.10;99.90;;;;;;5052316;28;20070;-77
2023/05/08 10:30:58;;;;;;;80.40;55.22;;;20.10;99.90;;;;;;5049929;28;20104;-77
2023/05/08 10:33:30;;;;;;;73.47;49.95;;;20.20;99.90;;;;;;5050937;28;20036;-77
2023/05/08 10:35:56;;;;;;;65.93;44.17;;;20.20;99.90;;;;;;5054906;28;20021;-77
2023/05/08 10:38:22;;;;;;;68.50;45.45;;;20.20;99.90;;;;;;5049379;28;20054;-78
2023/05/08 10:40:51;;;;;;;66.75;44.92;;;20.20;99.90;;;;;;5053307;28;20059;-78
2023/05/08 10:43:18;;;;;;;68.68;44.25;;;20.20;99.90;;;;;;5050832;28;20050;-77
2023/05/08 10:45:44;;;;;;;81.30;50.25;;;20.30;99.90;;;;;;5056301;28;20037;-77
2023/05/08 10:48:24;;;;;;;78.63;46.95;;;20.20;99.90;;;;;;5056694;28;20489;-78
2023/05/08 10:50:59;;;;;;;70.22;45.97;;;20.20;99.90;;;;;;5050569;28;20500;-77
2023/05/08 10:53:47;;;;;;;70.00;44.67;;;20.20;99.90;;;;;;5053569;28;20118;-77
2023/05/08 10:56:13;;;;;;;71.38;46.53;;;20.10;99.90;;;;;;5050705;28;20020;-77
2023/05/08 10:58:39;;;;;;;69.40;45.33;;;20.20;99.90;;;;;;5051241;28;20098;-77
2023/05/08 11:01:07;;;;;;;66.15;44.88;;;20.30;99.90;;;;;;5054079;28;20033;-77
2023/05/08 11:03:44;;;;;;;67.53;45.20;;;20.20;99.90;;;;;;5047117;28;20032;-76
2023/05/08 11:06:11;;;;;;;62.25;43.25;;;20.10;99.90;;;;;;5049066;28;20028;-77
2023/05/08 11:08:45;;;;;;;61.42;41.05;;;20.20;99.90;;;;;;5051339;28;20029;-77
2023/05/08 11:11:25;;;;;;;63.35;43.08;;;20.40;99.90;;;;;;5049186;28;20017;-77
2023/05/08 11:14:06;;;;;;;59.90;41.05;;;20.50;99.90;;;;;;5049535;28;20060;-77
2023/05/08 11:16:54;;;;;;;52.97;36.63;;;20.60;99.90;;;;;;5053867;28;20027;-77
2023/05/08 11:19:20;;;;;;;62.85;40.25;;;20.70;99.90;;;;;;5055513;28;20025;-77
2023/05/08 11:22:19;;;;;;;56.47;40.22;;;20.80;99.90;;;;;;5056310;28;20039;-77
2023/05/08 11:25:11;;;;;;;56.05;35.45;;;20.80;99.90;;;;;;5058240;28;20040;-77
2023/05/08 11:28:05;;;;;;;65.80;42.70;;;20.80;99.90;;;;;;5055452;28;20020;-77
2023/05/08 11:30:31;;;;;;;66.93;42.47;;;21.10;99.90;;;;;;5054900;28;20487;-77
2023/05/08 11:33:03;;;;;;;58.70;41.38;;;21.20;99.90;;;;;;5056693;28;20089;-77
2023/05/08 11:35:50;;;;;;;59.83;41.90;;;21.10;99.90;;;;;;5055879;28;20104;-77
2023/05/08 11:38:30;;;;;;;64.97;47.10;;;21.20;99.90;;;;;;5062841;28;20369;-76
2023/05/08 11:41:02;;;;;;;64.68;46.25;;;21.40;99.90;;;;;;5055992;28;20032;-77
2023/05/08 11:43:31;;;;;;;67.43;44.25;;;21.40;99.90;;;;;;5056798;28;20024;-77
2023/05/08 11:46:18;;;;;;;58.35;41.97;;;21.60;99.90;;;;;;5055407;28;20017;-77
2023/05/08 11:48:44;;;;;;;57.83;40.92;;;21.90;99.90;;;;;;5056159;28;20028;-77
2023/05/08 11:51:10;;;;;;;56.40;37.38;;;22.10;99.90;;;;;;5051745;28;20040;-77
2023/05/08 11:53:37;;;;;;;49.47;34.28;;;22.20;99.90;;;;;;5054931;28;20076;-77
2023/05/08 11:56:03;;;;;;;50.50;36.78;;;22.20;99.90;;;;;;5051861;28;20029;-77
2023/05/08 11:58:29;;;;;;;49.65;36.10;;;22.30;99.90;;;;;;5057500;28;20547;-77
2023/05/08 12:00:56;;;;;;;46.90;34.17;;;22.40;99.90;;;;;;5054301;28;20067;-78
2023/05/08 12:03:24;;;;;;;45.70;31.17;;;22.50;99.90;;;;;;5050442;28;20108;-77
2023/05/08 12:05:50;;;;;;;41.40;31.08;;;22.40;99.90;;;;;;5050163;28;20555;-77
2023/05/08 12:08:17;;;;;;;44.95;32.88;;;22.40;99.90;;;;;;5051879;28;20473;-77
2023/05/08 12:10:45;;;;;;;53.38;36.17;;;22.50;99.90;;;;;;5054907;28;20032;-77
2023/05/08 12:13:16;;;;;;;51.58;38.35;;;22.40;99.90;;;;;;5053021;28;20041;-77
2023/05/08 12:15:42;;;;;;;44.70;32.28;;;22.30;99.90;;;;;;5049754;28;20028;-77
2023/05/08 12:18:07;;;;;;;47.15;33.63;;;22.50;99.90;;;;;;5055980;28;20025;-78
2023/05/08 12:20:33;;;;;;;54.10;38.67;;;22.80;99.90;;;;;;5053940;28;20350;-77
2023/05/08 12:23:01;;;;;;;43.83;30.98;;;23.10;99.90;;;;;;5051264;28;20064;-77
2023/05/08 12:25:27;;;;;;;39.72;29.05;;;23.40;99.90;;;;;;5046647;28;20362;-77
2023/05/08 12:27:53;;;;;;;42.90;29.73;;;23.50;99.90;;;;;;5055966;28;20017;-77
2023/05/08 12:30:19;;;;;;;39.65;28.63;;;23.50;99.90;;;;;;5056280;28;20064;-77
2023/05/08 12:32:46;;;;;;;43.22;31.23;;;23.80;99.90;;;;;;5054193;28;20031;-78
2023/05/08 12:35:13;;;;;;;43.80;26.33;;;23.90;99.90;;;;;;5056432;28;20460;-77
2023/05/08 12:37:39;;;;;;;30.75;23.88;;;23.70;99.90;;;;;;5056540;28;20028;-77
2023/05/08 12:40:06;;;;;;;33.55;26.02;;;23.70;99.90;;;;;;5055468;28;20079;-77